sensor_id;sensor_type;location;lat;lon;timestamp;P1;durP1;ratioP1;P2;durP2;ratioP2
10659;SDS011;5378;53.206;13.316;2022-08-05T00:00:37;1.93;;;1.07;;
10659;SDS011;5378;53.206;13.316;2022-08-05T00:03:25;1.07;;;0.83;;
10659;SDS011;5378;53.206;13.316;2022-08-05T00:06:12;1.50;;;1.03;;
10659;SDS011;5378;53.206;13.316;2022-08-05T00:09:00;1.50;;;0.90;;
10659;SDS011;5378;53.206;13.316;2022-08-05T00:11:47;1.80;;;1.03;;
10659;SDS011;5378;53.206;13.316;2022-08-05T00:14:35;2.10;;;0.87;;
10659;SDS011;5378;53.206;13.316;2022-08-05T00:17:23;1.23;;;0.80;;
10659;SDS011;5378;53.206;13.316;2022-08-05T00:20:10;1.30;;;1.03;;
10659;SDS011;5378;53.206;13.316;2022-08-05T00:22:57;0.97;;;0.80;;
10659;SDS011;5378;53.206;13.316;2022-08-05T00:25:47;2.20;;;1.67;;
10659;SDS011;5378;53.206;13.316;2022-08-05T00:28:34;0.60;;;0.33;;
10659;SDS011;5378;53.206;13.316;2022-08-05T00:31:22;1.00;;;0.70;;
10659;SDS011;5378;53.206;13.316;2022-08-05T00:34:10;2.53;;;0.93;;
10659;SDS011;5378;53.206;13.316;2022-08-05T00:36:57;1.57;;;1.10;;
10659;SDS011;5378;53.206;13.316;2022-08-05T00:39:44;1.03;;;0.93;;
10659;SDS011;5378;53.206;13.316;2022-08-05T00:42:32;2.20;;;1.23;;
10659;SDS011;5378;53.206;13.316;2022-08-05T00:45:20;0.97;;;0.60;;
10659;SDS011;5378;53.206;13.316;2022-08-05T00:48:08;1.93;;;1.73;;
10659;SDS011;5378;53.206;13.316;2022-08-05T00:50:57;1.50;;;1.20;;
10659;SDS011;5378;53.206;13.316;2022-08-05T00:53:44;0.60;;;0.40;;
10659;SDS011;5378;53.206;13.316;2022-08-05T00:56:31;1.20;;;1.10;;
10659;SDS011;5378;53.206;13.316;2022-08-05T00:59:18;8.23;;;1.30;;
10659;SDS011;5378;53.206;13.316;2022-08-05T01:02:05;1.00;;;0.73;;
10659;SDS011;5378;53.206;13.316;2022-08-05T01:04:52;0.97;;;0.87;;
10659;SDS011;5378;53.206;13.316;2022-08-05T01:07:41;1.40;;;1.30;;
10659;SDS011;5378;53.206;13.316;2022-08-05T01:10:29;1.10;;;1.00;;
10659;SDS011;5378;53.206;13.316;2022-08-05T01:13:22;2.03;;;0.80;;
10659;SDS011;5378;53.206;13.316;2022-08-05T01:16:26;1.30;;;0.90;;
10659;SDS011;5378;53.206;13.316;2022-08-05T01:19:21;1.17;;;0.93;;
10659;SDS011;5378;53.206;13.316;2022-08-05T01:22:29;1.27;;;1.00;;
10659;SDS011;5378;53.206;13.316;2022-08-05T01:25:32;1.60;;;1.50;;
10659;SDS011;5378;53.206;13.316;2022-08-05T01:28:34;0.90;;;0.80;;
10659;SDS011;5378;53.206;13.316;2022-08-05T01:31:24;1.00;;;0.90;;
10659;SDS011;5378;53.206;13.316;2022-08-05T01:34:19;2.00;;;1.33;;
10659;SDS011;5378;53.206;13.316;2022-08-05T01:37:15;0.80;;;0.60;;
10659;SDS011;5378;53.206;13.316;2022-08-05T01:40:04;1.13;;;0.83;;
10659;SDS011;5378;53.206;13.316;2022-08-05T01:42:54;1.30;;;0.83;;
10659;SDS011;5378;53.206;13.316;2022-08-05T01:45:45;2.20;;;0.57;;
10659;SDS011;5378;53.206;13.316;2022-08-05T01:48:33;1.17;;;1.07;;
10659;SDS011;5378;53.206;13.316;2022-08-05T01:51:21;1.67;;;0.97;;
10659;SDS011;5378;53.206;13.316;2022-08-05T01:54:11;0.73;;;0.70;;
10659;SDS011;5378;53.206;13.316;2022-08-05T01:57:00;0.80;;;0.67;;
10659;SDS011;5378;53.206;13.316;2022-08-05T01:59:50;1.63;;;1.20;;
10659;SDS011;5378;53.206;13.316;2022-08-05T02:02:42;1.13;;;0.83;;
10659;SDS011;5378;53.206;13.316;2022-08-05T02:05:34;1.43;;;1.17;;
10659;SDS011;5378;53.206;13.316;2022-08-05T02:08:23;1.70;;;1.03;;
10659;SDS011;5378;53.206;13.316;2022-08-05T02:11:11;2.50;;;1.47;;
10659;SDS011;5378;53.206;13.316;2022-08-05T02:14:01;1.53;;;1.37;;
10659;SDS011;5378;53.206;13.316;2022-08-05T02:16:54;1.57;;;1.10;;
10659;SDS011;5378;53.206;13.316;2022-08-05T02:19:48;1.00;;;0.80;;
10659;SDS011;5378;53.206;13.316;2022-08-05T02:22:41;1.03;;;0.93;;
10659;SDS011;5378;53.206;13.316;2022-08-05T02:25:31;0.90;;;0.57;;
10659;SDS011;5378;53.206;13.316;2022-08-05T02:28:22;1.13;;;0.90;;
10659;SDS011;5378;53.206;13.316;2022-08-05T02:31:13;1.20;;;0.70;;
10659;SDS011;5378;53.206;13.316;2022-08-05T02:34:04;1.23;;;0.87;;
10659;SDS011;5378;53.206;13.316;2022-08-05T02:36:56;1.77;;;0.90;;
10659;SDS011;5378;53.206;13.316;2022-08-05T02:39:47;1.40;;;0.97;;
10659;SDS011;5378;53.206;13.316;2022-08-05T02:42:35;2.07;;;1.40;;
10659;SDS011;5378;53.206;13.316;2022-08-05T02:45:24;1.10;;;0.77;;
10659;SDS011;5378;53.206;13.316;2022-08-05T02:48:14;3.27;;;2.20;;
10659;SDS011;5378;53.206;13.316;2022-08-05T02:51:02;1.57;;;0.90;;
10659;SDS011;5378;53.206;13.316;2022-08-05T02:53:56;13.73;;;1.23;;
10659;SDS011;5378;53.206;13.316;2022-08-05T02:56:47;0.70;;;0.57;;
10659;SDS011;5378;53.206;13.316;2022-08-05T02:59:35;1.20;;;0.70;;
10659;SDS011;5378;53.206;13.316;2022-08-05T03:02:23;0.70;;;0.67;;
10659;SDS011;5378;53.206;13.316;2022-08-05T03:05:14;1.70;;;1.57;;
10659;SDS011;5378;53.206;13.316;2022-08-05T03:08:02;1.90;;;1.63;;
10659;SDS011;5378;53.206;13.316;2022-08-05T03:10:51;1.37;;;1.07;;
10659;SDS011;5378;53.206;13.316;2022-08-05T03:13:38;1.23;;;1.13;;
10659;SDS011;5378;53.206;13.316;2022-08-05T03:16:25;0.70;;;0.60;;
10659;SDS011;5378;53.206;13.316;2022-08-05T03:19:12;0.87;;;0.60;;
10659;SDS011;5378;53.206;13.316;2022-08-05T03:21:59;1.00;;;0.90;;
10659;SDS011;5378;53.206;13.316;2022-08-05T03:24:47;1.07;;;0.97;;
10659;SDS011;5378;53.206;13.316;2022-08-05T03:27:36;1.57;;;1.13;;
10659;SDS011;5378;53.206;13.316;2022-08-05T03:30:23;1.10;;;0.87;;
10659;SDS011;5378;53.206;13.316;2022-08-05T03:33:11;4.00;;;2.47;;
10659;SDS011;5378;53.206;13.316;2022-08-05T03:35:59;1.77;;;1.27;;
10659;SDS011;5378;53.206;13.316;2022-08-05T03:38:47;1.20;;;1.10;;
10659;SDS011;5378;53.206;13.316;2022-08-05T03:41:34;1.17;;;0.70;;
10659;SDS011;5378;53.206;13.316;2022-08-05T03:44:23;1.37;;;1.27;;
10659;SDS011;5378;53.206;13.316;2022-08-05T03:47:11;1.17;;;0.87;;
10659;SDS011;5378;53.206;13.316;2022-08-05T03:49:58;2.10;;;0.90;;
10659;SDS011;5378;53.206;13.316;2022-08-05T03:52:48;2.43;;;1.70;;
10659;SDS011;5378;53.206;13.316;2022-08-05T03:55:44;0.80;;;0.70;;
10659;SDS011;5378;53.206;13.316;2022-08-05T03:58:39;0.80;;;0.80;;
10659;SDS011;5378;53.206;13.316;2022-08-05T04:01:33;2.60;;;1.80;;
10659;SDS011;5378;53.206;13.316;2022-08-05T04:04:23;1.77;;;1.67;;
10659;SDS011;5378;53.206;13.316;2022-08-05T04:07:11;2.67;;;1.67;;
10659;SDS011;5378;53.206;13.316;2022-08-05T04:09:58;4.37;;;1.57;;
10659;SDS011;5378;53.206;13.316;2022-08-05T04:12:46;2.70;;;1.80;;
10659;SDS011;5378;53.206;13.316;2022-08-05T04:15:33;1.47;;;1.23;;
10659;SDS011;5378;53.206;13.316;2022-08-05T04:18:23;1.63;;;1.23;;
10659;SDS011;5378;53.206;13.316;2022-08-05T04:21:10;1.23;;;1.10;;
10659;SDS011;5378;53.206;13.316;2022-08-05T04:23:57;2.57;;;2.00;;
10659;SDS011;5378;53.206;13.316;2022-08-05T04:26:44;2.37;;;2.10;;
10659;SDS011;5378;53.206;13.316;2022-08-05T04:29:31;2.03;;;1.50;;
10659;SDS011;5378;53.206;13.316;2022-08-05T04:32:19;1.97;;;1.47;;
10659;SDS011;5378;53.206;13.316;2022-08-05T04:35:08;1.63;;;1.27;;
10659;SDS011;5378;53.206;13.316;2022-08-05T04:37:55;5.03;;;2.03;;
10659;SDS011;5378;53.206;13.316;2022-08-05T04:40:42;1.43;;;1.00;;
10659;SDS011;5378;53.206;13.316;2022-08-05T04:43:29;1.50;;;1.40;;
10659;SDS011;5378;53.206;13.316;2022-08-05T04:46:17;1.67;;;1.40;;
10659;SDS011;5378;53.206;13.316;2022-08-05T04:49:04;1.43;;;1.33;;
10659;SDS011;5378;53.206;13.316;2022-08-05T04:51:53;3.87;;;2.40;;
10659;SDS011;5378;53.206;13.316;2022-08-05T04:54:40;1.60;;;1.50;;
10659;SDS011;5378;53.206;13.316;2022-08-05T04:57:27;2.57;;;1.67;;
10659;SDS011;5378;53.206;13.316;2022-08-05T05:00:15;1.97;;;1.77;;
10659;SDS011;5378;53.206;13.316;2022-08-05T05:03:02;2.33;;;2.00;;
10659;SDS011;5378;53.206;13.316;2022-08-05T05:05:49;1.93;;;1.27;;
10659;SDS011;5378;53.206;13.316;2022-08-05T05:08:38;1.77;;;1.27;;
10659;SDS011;5378;53.206;13.316;2022-08-05T05:11:25;2.83;;;1.93;;
10659;SDS011;5378;53.206;13.316;2022-08-05T05:14:13;2.50;;;1.80;;
10659;SDS011;5378;53.206;13.316;2022-08-05T05:16:59;9.07;;;1.60;;
10659;SDS011;5378;53.206;13.316;2022-08-05T05:19:47;2.50;;;1.90;;
10659;SDS011;5378;53.206;13.316;2022-08-05T05:22:34;3.30;;;2.03;;
10659;SDS011;5378;53.206;13.316;2022-08-05T05:25:22;2.50;;;2.30;;
10659;SDS011;5378;53.206;13.316;2022-08-05T05:28:10;3.30;;;1.27;;
10659;SDS011;5378;53.206;13.316;2022-08-05T05:30:57;4.03;;;1.87;;
10659;SDS011;5378;53.206;13.316;2022-08-05T05:33:45;1.93;;;1.50;;
10659;SDS011;5378;53.206;13.316;2022-08-05T05:36:32;1.20;;;1.07;;
10659;SDS011;5378;53.206;13.316;2022-08-05T05:39:19;1.70;;;1.60;;
10659;SDS011;5378;53.206;13.316;2022-08-05T05:42:07;2.17;;;1.70;;
10659;SDS011;5378;53.206;13.316;2022-08-05T05:44:54;3.30;;;1.83;;
10659;SDS011;5378;53.206;13.316;2022-08-05T05:47:41;1.77;;;1.63;;
10659;SDS011;5378;53.206;13.316;2022-08-05T05:50:29;3.30;;;3.00;;
10659;SDS011;5378;53.206;13.316;2022-08-05T05:53:16;1.60;;;1.40;;
10659;SDS011;5378;53.206;13.316;2022-08-05T05:56:03;1.87;;;1.53;;
10659;SDS011;5378;53.206;13.316;2022-08-05T05:58:52;1.50;;;1.40;;
10659;SDS011;5378;53.206;13.316;2022-08-05T06:01:39;2.53;;;1.33;;
10659;SDS011;5378;53.206;13.316;2022-08-05T06:04:27;3.03;;;1.30;;
10659;SDS011;5378;53.206;13.316;2022-08-05T06:07:15;2.00;;;1.57;;
10659;SDS011;5378;53.206;13.316;2022-08-05T06:10:02;1.77;;;1.30;;
10659;SDS011;5378;53.206;13.316;2022-08-05T06:12:52;1.93;;;1.37;;
10659;SDS011;5378;53.206;13.316;2022-08-05T06:15:41;3.30;;;1.40;;
10659;SDS011;5378;53.206;13.316;2022-08-05T06:18:28;2.23;;;1.37;;
10659;SDS011;5378;53.206;13.316;2022-08-05T06:21:16;1.27;;;1.03;;
10659;SDS011;5378;53.206;13.316;2022-08-05T06:24:03;3.67;;;2.43;;
10659;SDS011;5378;53.206;13.316;2022-08-05T06:26:51;2.97;;;1.87;;
10659;SDS011;5378;53.206;13.316;2022-08-05T06:29:38;3.87;;;2.47;;
10659;SDS011;5378;53.206;13.316;2022-08-05T06:32:26;4.90;;;1.97;;
10659;SDS011;5378;53.206;13.316;2022-08-05T06:35:14;3.73;;;1.43;;
10659;SDS011;5378;53.206;13.316;2022-08-05T06:38:01;8.60;;;3.17;;
10659;SDS011;5378;53.206;13.316;2022-08-05T06:40:50;2.73;;;2.13;;
10659;SDS011;5378;53.206;13.316;2022-08-05T06:43:37;3.90;;;2.20;;
10659;SDS011;5378;53.206;13.316;2022-08-05T06:46:24;3.40;;;1.93;;
10659;SDS011;5378;53.206;13.316;2022-08-05T06:49:13;3.47;;;2.60;;
10659;SDS011;5378;53.206;13.316;2022-08-05T06:52:00;1.57;;;1.47;;
10659;SDS011;5378;53.206;13.316;2022-08-05T06:54:47;2.90;;;1.70;;
10659;SDS011;5378;53.206;13.316;2022-08-05T06:57:34;2.03;;;1.40;;
10659;SDS011;5378;53.206;13.316;2022-08-05T07:00:21;2.43;;;1.50;;
10659;SDS011;5378;53.206;13.316;2022-08-05T07:03:09;3.67;;;2.00;;
10659;SDS011;5378;53.206;13.316;2022-08-05T07:05:58;3.40;;;2.50;;
10659;SDS011;5378;53.206;13.316;2022-08-05T07:08:46;3.03;;;2.13;;
10659;SDS011;5378;53.206;13.316;2022-08-05T07:11:33;2.40;;;1.70;;
10659;SDS011;5378;53.206;13.316;2022-08-05T07:14:20;12.10;;;2.17;;
10659;SDS011;5378;53.206;13.316;2022-08-05T07:17:25;6.77;;;2.23;;
10659;SDS011;5378;53.206;13.316;2022-08-05T07:20:13;2.63;;;2.40;;
10659;SDS011;5378;53.206;13.316;2022-08-05T07:23:18;3.33;;;2.30;;
10659;SDS011;5378;53.206;13.316;2022-08-05T07:26:05;2.67;;;1.80;;
10659;SDS011;5378;53.206;13.316;2022-08-05T07:28:52;5.60;;;2.00;;
10659;SDS011;5378;53.206;13.316;2022-08-05T07:31:39;2.43;;;1.80;;
10659;SDS011;5378;53.206;13.316;2022-08-05T07:34:27;2.73;;;2.33;;
10659;SDS011;5378;53.206;13.316;2022-08-05T07:37:14;2.47;;;1.60;;
10659;SDS011;5378;53.206;13.316;2022-08-05T07:40:04;3.13;;;1.90;;
10659;SDS011;5378;53.206;13.316;2022-08-05T07:42:52;2.93;;;2.00;;
10659;SDS011;5378;53.206;13.316;2022-08-05T07:45:39;2.23;;;1.47;;
10659;SDS011;5378;53.206;13.316;2022-08-05T07:48:27;5.13;;;2.10;;
10659;SDS011;5378;53.206;13.316;2022-08-05T07:51:15;2.40;;;1.23;;
10659;SDS011;5378;53.206;13.316;2022-08-05T07:54:02;3.37;;;2.23;;
10659;SDS011;5378;53.206;13.316;2022-08-05T07:56:50;5.67;;;3.70;;
10659;SDS011;5378;53.206;13.316;2022-08-05T07:59:37;8.10;;;3.47;;
10659;SDS011;5378;53.206;13.316;2022-08-05T08:02:25;7.20;;;4.67;;
10659;SDS011;5378;53.206;13.316;2022-08-05T08:05:14;4.87;;;3.03;;
10659;SDS011;5378;53.206;13.316;2022-08-05T08:08:02;6.70;;;3.97;;
10659;SDS011;5378;53.206;13.316;2022-08-05T08:10:49;6.50;;;4.20;;
10659;SDS011;5378;53.206;13.316;2022-08-05T08:13:37;7.77;;;4.20;;
10659;SDS011;5378;53.206;13.316;2022-08-05T08:16:26;5.30;;;3.60;;
10659;SDS011;5378;53.206;13.316;2022-08-05T08:19:13;5.93;;;3.40;;
10659;SDS011;5378;53.206;13.316;2022-08-05T08:22:00;5.20;;;3.93;;
10659;SDS011;5378;53.206;13.316;2022-08-05T08:24:47;11.27;;;4.20;;
10659;SDS011;5378;53.206;13.316;2022-08-05T08:27:35;7.23;;;3.10;;
10659;SDS011;5378;53.206;13.316;2022-08-05T08:30:23;7.43;;;5.60;;
10659;SDS011;5378;53.206;13.316;2022-08-05T08:33:10;13.30;;;3.97;;
10659;SDS011;5378;53.206;13.316;2022-08-05T08:35:57;3.93;;;2.27;;
10659;SDS011;5378;53.206;13.316;2022-08-05T08:38:57;5.43;;;2.80;;
10659;SDS011;5378;53.206;13.316;2022-08-05T08:41:46;2.83;;;2.50;;
10659;SDS011;5378;53.206;13.316;2022-08-05T08:44:34;4.27;;;2.80;;
10659;SDS011;5378;53.206;13.316;2022-08-05T08:47:24;4.70;;;3.40;;
10659;SDS011;5378;53.206;13.316;2022-08-05T08:50:12;4.13;;;3.30;;
10659;SDS011;5378;53.206;13.316;2022-08-05T08:53:00;4.47;;;2.80;;
10659;SDS011;5378;53.206;13.316;2022-08-05T08:55:49;6.80;;;3.10;;
10659;SDS011;5378;53.206;13.316;2022-08-05T08:58:37;4.97;;;3.03;;
10659;SDS011;5378;53.206;13.316;2022-08-05T09:01:24;8.10;;;4.07;;
10659;SDS011;5378;53.206;13.316;2022-08-05T09:04:13;6.80;;;2.97;;
10659;SDS011;5378;53.206;13.316;2022-08-05T09:07:01;3.93;;;2.40;;
10659;SDS011;5378;53.206;13.316;2022-08-05T09:09:48;4.83;;;2.63;;
10659;SDS011;5378;53.206;13.316;2022-08-05T09:12:36;3.63;;;2.60;;
10659;SDS011;5378;53.206;13.316;2022-08-05T09:15:24;5.23;;;2.90;;
10659;SDS011;5378;53.206;13.316;2022-08-05T09:18:11;3.23;;;2.50;;
10659;SDS011;5378;53.206;13.316;2022-08-05T09:21:00;4.23;;;3.13;;
10659;SDS011;5378;53.206;13.316;2022-08-05T09:23:50;3.40;;;2.50;;
10659;SDS011;5378;53.206;13.316;2022-08-05T09:26:49;2.60;;;2.10;;
10659;SDS011;5378;53.206;13.316;2022-08-05T09:29:39;6.03;;;4.03;;
10659;SDS011;5378;53.206;13.316;2022-08-05T09:32:34;4.33;;;3.07;;
10659;SDS011;5378;53.206;13.316;2022-08-05T09:35:22;5.03;;;3.00;;
10659;SDS011;5378;53.206;13.316;2022-08-05T09:38:10;3.80;;;2.43;;
10659;SDS011;5378;53.206;13.316;2022-08-05T09:41:01;4.00;;;2.53;;
10659;SDS011;5378;53.206;13.316;2022-08-05T09:43:49;8.20;;;3.20;;
10659;SDS011;5378;53.206;13.316;2022-08-05T09:46:37;3.37;;;2.50;;
10659;SDS011;5378;53.206;13.316;2022-08-05T09:49:24;3.77;;;2.43;;
10659;SDS011;5378;53.206;13.316;2022-08-05T09:52:21;4.00;;;2.87;;
10659;SDS011;5378;53.206;13.316;2022-08-05T09:55:11;3.60;;;2.50;;
10659;SDS011;5378;53.206;13.316;2022-08-05T09:57:58;4.60;;;2.83;;
10659;SDS011;5378;53.206;13.316;2022-08-05T10:00:56;4.63;;;2.47;;
10659;SDS011;5378;53.206;13.316;2022-08-05T10:03:53;4.03;;;2.57;;
10659;SDS011;5378;53.206;13.316;2022-08-05T10:06:41;3.63;;;2.47;;
10659;SDS011;5378;53.206;13.316;2022-08-05T10:09:40;5.03;;;2.10;;
10659;SDS011;5378;53.206;13.316;2022-08-05T10:12:41;3.73;;;2.77;;
10659;SDS011;5378;53.206;13.316;2022-08-05T10:15:29;6.50;;;2.20;;
10659;SDS011;5378;53.206;13.316;2022-08-05T10:18:17;5.40;;;3.33;;
10659;SDS011;5378;53.206;13.316;2022-08-05T10:21:06;2.73;;;2.13;;
10659;SDS011;5378;53.206;13.316;2022-08-05T10:23:53;3.97;;;2.63;;
10659;SDS011;5378;53.206;13.316;2022-08-05T10:26:41;4.53;;;2.80;;
10659;SDS011;5378;53.206;13.316;2022-08-05T10:29:30;3.07;;;2.00;;
10659;SDS011;5378;53.206;13.316;2022-08-05T10:32:21;3.23;;;2.53;;
10659;SDS011;5378;53.206;13.316;2022-08-05T10:35:09;8.67;;;3.07;;
10659;SDS011;5378;53.206;13.316;2022-08-05T10:37:56;5.87;;;2.73;;
10659;SDS011;5378;53.206;13.316;2022-08-05T10:40:45;3.93;;;3.10;;
10659;SDS011;5378;53.206;13.316;2022-08-05T10:43:42;5.27;;;3.20;;
10659;SDS011;5378;53.206;13.316;2022-08-05T10:46:43;3.43;;;2.33;;
10659;SDS011;5378;53.206;13.316;2022-08-05T10:49:32;4.97;;;2.80;;
10659;SDS011;5378;53.206;13.316;2022-08-05T10:55:26;2.83;;;2.00;;
10659;SDS011;5378;53.206;13.316;2022-08-05T10:58:14;3.10;;;2.47;;
10659;SDS011;5378;53.206;13.316;2022-08-05T11:01:05;1.80;;;1.70;;
10659;SDS011;5378;53.206;13.316;2022-08-05T11:04:00;5.50;;;1.83;;
10659;SDS011;5378;53.206;13.316;2022-08-05T11:07:05;2.63;;;2.03;;
10659;SDS011;5378;53.206;13.316;2022-08-05T11:09:55;2.03;;;1.70;;
10659;SDS011;5378;53.206;13.316;2022-08-05T11:12:43;4.13;;;1.90;;
10659;SDS011;5378;53.206;13.316;2022-08-05T11:15:31;3.73;;;1.57;;
10659;SDS011;5378;53.206;13.316;2022-08-05T11:18:25;3.00;;;1.80;;
10659;SDS011;5378;53.206;13.316;2022-08-05T11:24:19;3.53;;;2.10;;
10659;SDS011;5378;53.206;13.316;2022-08-05T11:30:16;2.70;;;2.07;;
10659;SDS011;5378;53.206;13.316;2022-08-05T11:36:13;2.37;;;1.50;;
10659;SDS011;5378;53.206;13.316;2022-08-05T11:39:02;2.10;;;1.90;;
10659;SDS011;5378;53.206;13.316;2022-08-05T11:41:50;1.70;;;1.60;;
10659;SDS011;5378;53.206;13.316;2022-08-05T11:44:38;3.03;;;2.03;;
10659;SDS011;5378;53.206;13.316;2022-08-05T11:47:25;2.20;;;1.57;;
10659;SDS011;5378;53.206;13.316;2022-08-05T11:50:12;2.63;;;1.53;;
10659;SDS011;5378;53.206;13.316;2022-08-05T11:53:02;2.80;;;1.70;;
10659;SDS011;5378;53.206;13.316;2022-08-05T11:55:54;4.50;;;3.07;;
10659;SDS011;5378;53.206;13.316;2022-08-05T11:58:43;2.30;;;1.90;;
10659;SDS011;5378;53.206;13.316;2022-08-05T12:01:34;2.47;;;1.50;;
10659;SDS011;5378;53.206;13.316;2022-08-05T12:04:21;3.10;;;1.70;;
10659;SDS011;5378;53.206;13.316;2022-08-05T12:07:09;3.47;;;1.63;;
10659;SDS011;5378;53.206;13.316;2022-08-05T12:09:58;2.00;;;1.50;;
10659;SDS011;5378;53.206;13.316;2022-08-05T12:12:52;2.20;;;1.67;;
10659;SDS011;5378;53.206;13.316;2022-08-05T12:15:41;2.27;;;1.53;;
10659;SDS011;5378;53.206;13.316;2022-08-05T12:18:31;4.90;;;1.50;;
10659;SDS011;5378;53.206;13.316;2022-08-05T12:21:20;1.10;;;1.00;;
10659;SDS011;5378;53.206;13.316;2022-08-05T12:24:09;2.47;;;1.57;;
10659;SDS011;5378;53.206;13.316;2022-08-05T12:26:59;4.20;;;2.30;;
10659;SDS011;5378;53.206;13.316;2022-08-05T12:29:58;1.87;;;1.40;;
10659;SDS011;5378;53.206;13.316;2022-08-05T12:32:47;3.33;;;1.90;;
10659;SDS011;5378;53.206;13.316;2022-08-05T12:35:35;1.97;;;1.37;;
10659;SDS011;5378;53.206;13.316;2022-08-05T12:38:22;3.20;;;2.17;;
10659;SDS011;5378;53.206;13.316;2022-08-05T12:41:10;2.20;;;1.50;;
10659;SDS011;5378;53.206;13.316;2022-08-05T12:43:59;7.67;;;1.83;;
10659;SDS011;5378;53.206;13.316;2022-08-05T12:46:52;2.50;;;1.60;;
10659;SDS011;5378;53.206;13.316;2022-08-05T12:49:43;2.93;;;2.00;;
10659;SDS011;5378;53.206;13.316;2022-08-05T12:52:33;2.03;;;1.77;;
10659;SDS011;5378;53.206;13.316;2022-08-05T12:55:22;2.00;;;1.67;;
10659;SDS011;5378;53.206;13.316;2022-08-05T12:58:18;3.80;;;1.60;;
10659;SDS011;5378;53.206;13.316;2022-08-05T13:01:08;3.23;;;1.90;;
10659;SDS011;5378;53.206;13.316;2022-08-05T13:03:57;4.93;;;2.03;;
10659;SDS011;5378;53.206;13.316;2022-08-05T13:06:45;4.27;;;2.40;;
10659;SDS011;5378;53.206;13.316;2022-08-05T13:09:32;2.07;;;1.70;;
10659;SDS011;5378;53.206;13.316;2022-08-05T13:12:21;2.00;;;1.67;;
10659;SDS011;5378;53.206;13.316;2022-08-05T13:15:10;2.90;;;2.00;;
10659;SDS011;5378;53.206;13.316;2022-08-05T13:17:58;3.87;;;2.07;;
10659;SDS011;5378;53.206;13.316;2022-08-05T13:20:47;5.87;;;2.70;;
10659;SDS011;5378;53.206;13.316;2022-08-05T13:23:35;2.70;;;2.27;;
10659;SDS011;5378;53.206;13.316;2022-08-05T13:26:22;3.17;;;1.97;;
10659;SDS011;5378;53.206;13.316;2022-08-05T13:29:11;2.50;;;1.73;;
10659;SDS011;5378;53.206;13.316;2022-08-05T13:31:59;3.80;;;2.17;;
10659;SDS011;5378;53.206;13.316;2022-08-05T13:34:47;4.63;;;2.03;;
10659;SDS011;5378;53.206;13.316;2022-08-05T13:37:36;2.37;;;2.17;;
10659;SDS011;5378;53.206;13.316;2022-08-05T13:40:24;2.40;;;1.83;;
10659;SDS011;5378;53.206;13.316;2022-08-05T13:43:20;3.50;;;2.37;;
10659;SDS011;5378;53.206;13.316;2022-08-05T13:46:07;4.00;;;2.00;;
10659;SDS011;5378;53.206;13.316;2022-08-05T13:48:56;5.50;;;2.77;;
10659;SDS011;5378;53.206;13.316;2022-08-05T13:51:43;3.23;;;2.43;;
10659;SDS011;5378;53.206;13.316;2022-08-05T13:54:32;3.17;;;2.20;;
10659;SDS011;5378;53.206;13.316;2022-08-05T13:57:20;3.10;;;2.33;;
10659;SDS011;5378;53.206;13.316;2022-08-05T14:00:08;3.33;;;2.40;;
10659;SDS011;5378;53.206;13.316;2022-08-05T14:02:55;2.47;;;1.87;;
10659;SDS011;5378;53.206;13.316;2022-08-05T14:05:42;3.67;;;2.83;;
10659;SDS011;5378;53.206;13.316;2022-08-05T14:08:29;2.80;;;1.80;;
10659;SDS011;5378;53.206;13.316;2022-08-05T14:11:18;1.97;;;1.60;;
10659;SDS011;5378;53.206;13.316;2022-08-05T14:14:05;2.73;;;1.80;;
10659;SDS011;5378;53.206;13.316;2022-08-05T14:16:53;4.27;;;2.40;;
10659;SDS011;5378;53.206;13.316;2022-08-05T14:19:40;3.40;;;2.03;;
10659;SDS011;5378;53.206;13.316;2022-08-05T14:22:29;2.73;;;2.30;;
10659;SDS011;5378;53.206;13.316;2022-08-05T14:25:16;4.37;;;2.27;;
10659;SDS011;5378;53.206;13.316;2022-08-05T14:28:08;3.53;;;1.57;;
10659;SDS011;5378;53.206;13.316;2022-08-05T14:30:55;3.30;;;1.60;;
10659;SDS011;5378;53.206;13.316;2022-08-05T14:33:43;2.20;;;1.90;;
10659;SDS011;5378;53.206;13.316;2022-08-05T14:36:30;5.70;;;1.90;;
10659;SDS011;5378;53.206;13.316;2022-08-05T14:39:17;3.30;;;2.30;;
10659;SDS011;5378;53.206;13.316;2022-08-05T14:42:04;4.93;;;2.40;;
10659;SDS011;5378;53.206;13.316;2022-08-05T14:45:02;3.50;;;2.47;;
10659;SDS011;5378;53.206;13.316;2022-08-05T14:47:50;2.43;;;2.13;;
10659;SDS011;5378;53.206;13.316;2022-08-05T14:50:37;3.40;;;2.50;;
10659;SDS011;5378;53.206;13.316;2022-08-05T14:53:24;3.17;;;2.17;;
10659;SDS011;5378;53.206;13.316;2022-08-05T14:56:12;1.73;;;1.47;;
10659;SDS011;5378;53.206;13.316;2022-08-05T14:58:59;2.40;;;2.07;;
10659;SDS011;5378;53.206;13.316;2022-08-05T15:01:47;3.47;;;2.40;;
10659;SDS011;5378;53.206;13.316;2022-08-05T15:04:34;1.83;;;1.70;;
10659;SDS011;5378;53.206;13.316;2022-08-05T15:07:22;2.20;;;1.30;;
10659;SDS011;5378;53.206;13.316;2022-08-05T15:10:09;1.67;;;1.27;;
10659;SDS011;5378;53.206;13.316;2022-08-05T15:12:56;3.33;;;1.83;;
10659;SDS011;5378;53.206;13.316;2022-08-05T15:15:46;2.73;;;1.90;;
10659;SDS011;5378;53.206;13.316;2022-08-05T15:18:34;2.43;;;1.97;;
10659;SDS011;5378;53.206;13.316;2022-08-05T15:21:21;3.70;;;1.77;;
10659;SDS011;5378;53.206;13.316;2022-08-05T15:24:08;1.10;;;1.00;;
10659;SDS011;5378;53.206;13.316;2022-08-05T15:26:55;3.97;;;1.20;;
10659;SDS011;5378;53.206;13.316;2022-08-05T15:29:43;2.50;;;1.40;;
10659;SDS011;5378;53.206;13.316;2022-08-05T15:32:30;3.47;;;2.10;;
10659;SDS011;5378;53.206;13.316;2022-08-05T15:35:18;2.30;;;1.47;;
10659;SDS011;5378;53.206;13.316;2022-08-05T15:38:05;1.47;;;1.13;;
10659;SDS011;5378;53.206;13.316;2022-08-05T15:40:52;2.30;;;1.10;;
10659;SDS011;5378;53.206;13.316;2022-08-05T15:43:39;3.13;;;1.17;;
10659;SDS011;5378;53.206;13.316;2022-08-05T15:46:26;1.77;;;0.93;;
10659;SDS011;5378;53.206;13.316;2022-08-05T15:49:13;1.10;;;0.87;;
10659;SDS011;5378;53.206;13.316;2022-08-05T15:52:06;0.80;;;0.63;;
10659;SDS011;5378;53.206;13.316;2022-08-05T15:54:53;1.87;;;1.10;;
10659;SDS011;5378;53.206;13.316;2022-08-05T15:57:42;0.80;;;0.43;;
10659;SDS011;5378;53.206;13.316;2022-08-05T16:00:30;0.90;;;0.60;;
10659;SDS011;5378;53.206;13.316;2022-08-05T16:03:27;1.43;;;0.60;;
10659;SDS011;5378;53.206;13.316;2022-08-05T16:06:14;1.10;;;0.77;;
10659;SDS011;5378;53.206;13.316;2022-08-05T16:09:03;1.70;;;1.10;;
10659;SDS011;5378;53.206;13.316;2022-08-05T16:11:50;1.00;;;0.50;;
10659;SDS011;5378;53.206;13.316;2022-08-05T16:14:37;1.60;;;1.50;;
10659;SDS011;5378;53.206;13.316;2022-08-05T16:17:24;1.20;;;0.70;;
10659;SDS011;5378;53.206;13.316;2022-08-05T16:20:11;0.70;;;0.40;;
10659;SDS011;5378;53.206;13.316;2022-08-05T16:22:58;0.90;;;0.60;;
10659;SDS011;5378;53.206;13.316;2022-08-05T16:25:47;1.47;;;0.70;;
10659;SDS011;5378;53.206;13.316;2022-08-05T16:28:34;0.70;;;0.43;;
10659;SDS011;5378;53.206;13.316;2022-08-05T16:31:22;2.30;;;1.37;;
10659;SDS011;5378;53.206;13.316;2022-08-05T16:34:09;0.90;;;0.70;;
10659;SDS011;5378;53.206;13.316;2022-08-05T16:36:56;1.10;;;0.50;;
10659;SDS011;5378;53.206;13.316;2022-08-05T16:39:43;0.80;;;0.60;;
10659;SDS011;5378;53.206;13.316;2022-08-05T16:42:33;0.70;;;0.50;;
10659;SDS011;5378;53.206;13.316;2022-08-05T16:45:20;0.60;;;0.30;;
10659;SDS011;5378;53.206;13.316;2022-08-05T16:48:08;1.17;;;0.47;;
10659;SDS011;5378;53.206;13.316;2022-08-05T16:50:54;0.70;;;0.50;;
10659;SDS011;5378;53.206;13.316;2022-08-05T16:53:43;0.80;;;0.47;;
10659;SDS011;5378;53.206;13.316;2022-08-05T16:56:30;0.90;;;0.43;;
10659;SDS011;5378;53.206;13.316;2022-08-05T16:59:19;0.70;;;0.40;;
10659;SDS011;5378;53.206;13.316;2022-08-05T17:02:07;1.10;;;0.60;;
10659;SDS011;5378;53.206;13.316;2022-08-05T17:04:54;0.60;;;0.33;;
10659;SDS011;5378;53.206;13.316;2022-08-05T17:07:41;1.00;;;0.57;;
10659;SDS011;5378;53.206;13.316;2022-08-05T17:10:28;0.93;;;0.30;;